Laurel, Nebraska
Current Conditions -  °F | °C
As of 2:15 PM on Monday 22 Dec 2014 (Local Time) from KLCG Reporting Station
Haze Haze  
Wind Chill: 36°   Ceiling: 900
Heat Index: 41°   Visibility: 5mi
Dew Point: 39°   Wind: 7mph
Humidity: 93%   Direction: 320°NW
Pressure: 29.41"   Gusts: NA
Location:  42.43°N, 97.09°W
Report Text: KLCG 222015Z AUTO 32006KT 5SM BR BKN009 OVC012 05/04 A2941 RMK AO2 T00480037
Loading
Personal Weather Stations






























Interactive Weather Map New forecast layout! Learn more

10-Day Weather Forecast

Advertisements
Track Severe Weather on mobile